地図

経路データ

SID SEASON NUMBER BASIN SUBBASIN NAME ISO_TIME NATURE LAT LON WMO_WIND WMO_PRES WMO_AGENCY TRACK_TYPE DIST2LAND LANDFALL IFLAG USA_AGENCY USA_ATCF_ID USA_LAT USA_LON USA_RECORD USA_STATUS USA_WIND USA_PRES USA_SSHS USA_R34_NE USA_R34_SE USA_R34_SW USA_R34_NW USA_R50_NE USA_R50_SE USA_R50_SW USA_R50_NW USA_R64_NE USA_R64_SE USA_R64_SW USA_R64_NW USA_POCI USA_ROCI USA_RMW USA_EYE TOKYO_LAT TOKYO_LON TOKYO_GRADE TOKYO_WIND TOKYO_PRES TOKYO_R50_DIR TOKYO_R50_LONG TOKYO_R50_SHORT TOKYO_R30_DIR TOKYO_R30_LONG TOKYO_R30_SHORT TOKYO_LAND CMA_LAT CMA_LON CMA_CAT CMA_WIND CMA_PRES HKO_LAT HKO_LON HKO_CAT HKO_WIND HKO_PRES NEWDELHI_LAT NEWDELHI_LON NEWDELHI_GRADE NEWDELHI_WIND NEWDELHI_PRES NEWDELHI_CI NEWDELHI_DP NEWDELHI_POCI REUNION_LAT REUNION_LON REUNION_TYPE REUNION_WIND REUNION_PRES REUNION_TNUM REUNION_CI REUNION_RMW REUNION_R34_NE REUNION_R34_SE REUNION_R34_SW REUNION_R34_NW REUNION_R50_NE REUNION_R50_SE REUNION_R50_SW REUNION_R50_NW REUNION_R64_NE REUNION_R64_SE REUNION_R64_SW REUNION_R64_NW BOM_LAT BOM_LON BOM_TYPE BOM_WIND BOM_PRES BOM_TNUM BOM_CI BOM_RMW BOM_R34_NE BOM_R34_SE BOM_R34_SW BOM_R34_NW BOM_R50_NE BOM_R50_SE BOM_R50_SW BOM_R50_NW BOM_R64_NE BOM_R64_SE BOM_R64_SW BOM_R64_NW BOM_ROCI BOM_POCI BOM_EYE BOM_POS_METHOD BOM_PRES_METHOD NADI_LAT NADI_LON NADI_CAT NADI_WIND NADI_PRES WELLINGTON_LAT WELLINGTON_LON WELLINGTON_WIND WELLINGTON_PRES DS824_LAT DS824_LON DS824_STAGE DS824_WIND DS824_PRES TD9636_LAT TD9636_LON TD9636_STAGE TD9636_WIND TD9636_PRES TD9635_LAT TD9635_LON TD9635_WIND TD9635_PRES TD9635_ROCI NEUMANN_LAT NEUMANN_LON NEUMANN_CLASS NEUMANN_WIND NEUMANN_PRES MLC_LAT MLC_LON MLC_CLASS MLC_WIND MLC_PRES USA_GUST BOM_GUST BOM_GUST_PER REUNION_GUST REUNION_GUST_PER USA_SEAHGT USA_SEARAD_NE USA_SEARAD_SE USA_SEARAD_SW USA_SEARAD_NW STORM_SPEED STORM_DIR
1931313N13131 1931 54 WP MM NOT_NAMED 1931-11-09 10:00:00 NR 13.3000 131.300 main 641 620 __________O___ -1 13.3000 131.300 7 5 270
1931313N13131 1931 54 WP MM NOT_NAMED 1931-11-09 12:00:00 NR 13.3010 131.136 main 620 588 __________P___ -1 13.3010 131.136 7 5 270
1931313N13131 1931 54 WP MM NOT_NAMED 1931-11-09 15:00:00 NR 13.3022 130.845 main 588 545 __________P___ -1 13.3022 130.845 7 7 270
1931313N13131 1931 54 WP MM NOT_NAMED 1931-11-09 18:00:00 NR 13.3026 130.440 main 545 482 __________P___ -1 13.3026 130.440 7 10 270
1931313N13131 1931 54 WP MM NOT_NAMED 1931-11-09 21:00:00 NR 13.3012 129.850 main 482 461 __________P___ -1 13.3012 129.850 7 12 270
1931313N13131 1931 54 WP MM NOT_NAMED 1931-11-09 22:00:00 NR 13.3000 129.600 main 461 399 __________O___ -1 13.3000 129.600 7 16 270
1931313N13131 1931 54 WP MM NOT_NAMED 1931-11-10 00:00:00 NR 13.2987 129.014 main 399 297 __________P___ -1 13.2987 129.014 7 19 271
1931313N13131 1931 54 WP MM NOT_NAMED 1931-11-10 03:00:00 NR 13.3262 127.972 main 297 194 __________P___ -1 13.3262 127.972 7 21 274
1931313N13131 1931 54 WP MM NOT_NAMED 1931-11-10 06:00:00 NR 13.4351 126.823 main 194 139 __________P___ -1 13.4351 126.823 7 23 279
1931313N13131 1931 54 WP MM NOT_NAMED 1931-11-10 09:00:00 NR 13.6791 125.669 main 140 108 __________P___ -1 13.6791 125.669 7 23 284
1931313N13131 1931 54 WP MM NOT_NAMED 1931-11-10 10:00:00 NR 13.8000 125.300 main 97 31 __________O___ -1 13.8000 125.300 4 22 295
1931313N13131 1931 54 WP MM NOT_NAMED 1931-11-10 12:00:00 NR 14.1446 124.625 main 31 31 __________P___ -1 14.1446 124.625 4 23 302
1931313N13131 1931 54 WP MM NOT_NAMED 1931-11-10 15:00:00 NR 14.8017 123.649 main 95 92 __________P___ -1 14.8017 123.649 4 23 307
1931313N13131 1931 54 WP MM NOT_NAMED 1931-11-10 18:00:00 NR 15.5431 122.725 main 92 0 __________P___ -1 15.5431 122.725 4 23 311
1931313N13131 1931 54 WP MM NOT_NAMED 1931-11-10 21:00:00 NR 16.2746 121.868 main 0 0 __________P___ -1 16.2746 121.868 4 22 312
1931313N13131 1931 54 WP MM NOT_NAMED 1931-11-10 22:00:00 NR 16.5000 121.600 main 0 0 __________O___ -1 16.5000 121.600 4 19 308
1931313N13131 1931 54 WP MM NOT_NAMED 1931-11-11 00:00:00 NR 16.8501 121.098 main 0 0 __________P___ -1 16.8501 121.098 4 17 306
1931313N13131 1931 54 WP MM NOT_NAMED 1931-11-11 03:00:00 NR 17.3258 120.410 main 10 10 __________P___ -1 17.3258 120.410 4 16 306
1931313N13131 1931 54 WP MM NOT_NAMED 1931-11-11 06:00:00 NR 17.7758 119.765 main 57 67 __________P___ -1 17.7758 119.765 4 15 307
1931313N13131 1931 54 WP MM NOT_NAMED 1931-11-11 09:00:00 NR 18.2373 119.121 main 143 149 __________P___ -1 18.2373 119.121 4 16 307
1931313N13131 1931 54 WP MM NOT_NAMED 1931-11-11 10:00:00 NR 18.4000 118.900 main 172 172 __________O___ -1 18.4000 118.900 4 16 308
1931313N13131 1931 54 WP MM NOT_NAMED 1931-11-11 12:00:00 NR 18.7443 118.440 main 231 234 __________P___ -1 18.7443 118.440 4 17 309
1931313N13131 1931 54 WP MM NOT_NAMED 1931-11-11 15:00:00 NR 19.3004 117.713 main 321 321 __________P___ -1 19.3004 117.713 4 18 309
1931313N13131 1931 54 WP MM NOT_NAMED 1931-11-11 18:00:00 NR 19.8900 116.950 main 336 249 __________P___ -1 19.8900 116.950 4 19 309
1931313N13131 1931 54 WP MM NOT_NAMED 1931-11-11 21:00:00 NR 20.4967 116.165 main 249 223 __________P___ -1 20.4967 116.165 4 19 309
1931313N13131 1931 54 WP MM NOT_NAMED 1931-11-11 22:00:00 NR 20.7000 115.900 main 223 __________O___ -1 20.7000 115.900 4 19 310

デジタル台風データ・検索

IBTrACS Databaseについて

本データベースは、米国NOAAが公開する1842年以降の世界の熱帯低気圧のベストトラックデータアーカイブInternational Best Track Archive for Climate Stewardship (IBTrACS)を、ウェブで閲覧しやすい形式に変換したものです。

最終更新日:2021-12-03